Time;durP1;ratioP1;P1;durP2;ratioP2;P2;SDS_P1;SDS_P2;PMS_P1;PMS_P2;Temp;Humidity;BMP_temperature;BMP_pressure;BME280_temperature;BME280_humidity;BME280_pressure;Samples;Min_cycle;Max_cycle;Signal;HPM_P1;HPM_P2
2022/05/19 00:01:40;;;;;;;2.45;1.70;;;;;;;;;;5058800;28;20217;-81
2022/05/19 00:04:07;;;;;;;1.65;1.55;;;;;;;;;;5059179;28;20205;-79
2022/05/19 00:06:36;;;;;;;1.52;1.42;;;;;;;;;;5059271;28;20212;-79
2022/05/19 00:09:03;;;;;;;1.90;1.48;;;;;;;;;;5058894;28;20229;-80
2022/05/19 00:11:33;;;;;;;1.88;1.77;;;;;;;;;;5059054;28;20222;-80
2022/05/19 00:14:01;;;;;;;1.80;1.70;;;;;;;;;;5057658;28;20209;-80
2022/05/19 00:16:29;;;;;;;1.60;1.50;;;;;;;;;;5059180;28;20201;-80
2022/05/19 00:18:56;;;;;;;1.48;1.38;;;;;;;;;;5057916;28;20217;-80
2022/05/19 00:21:24;;;;;;;1.80;1.70;;;;;;;;;;5057801;28;20232;-80
2022/05/19 00:23:52;;;;;;;1.80;1.70;;;;;;;;;;5057303;28;20216;-80
2022/05/19 00:26:20;;;;;;;1.70;1.60;;;;;;;;;;5057971;28;20197;-80
2022/05/19 00:28:47;;;;;;;1.75;1.65;;;;;;;;;;5057476;28;20218;-80
2022/05/19 00:31:15;;;;;;;2.20;2.10;;;;;;;;;;5057549;28;20263;-80
2022/05/19 00:33:43;;;;;;;1.65;1.55;;;;;;;;;;5057374;28;20655;-80
2022/05/19 00:36:13;;;;;;;2.03;1.92;;;;;;;;;;5057794;28;20655;-80
2022/05/19 00:38:40;;;;;;;2.05;1.95;;;;;;;;;;5057597;28;20571;-80
2022/05/19 00:41:10;;;;;;;2.40;2.22;;;;;;;;;;5058034;28;20226;-80
2022/05/19 00:43:41;;;;;;;1.90;1.80;;;;;;;;;;5056586;28;20261;-80
2022/05/19 00:46:12;;;;;;;1.67;1.58;;;;;;;;;;5057588;28;20297;-80
2022/05/19 00:48:48;;;;;;;1.92;1.83;;;;;;;;;;5057630;28;20206;-80
2022/05/19 00:51:18;;;;;;;2.25;2.05;;;;;;;;;;5057343;28;20267;-80
2022/05/19 00:53:49;;;;;;;1.90;1.80;;;;;;;;;;5057151;28;20205;-80
2022/05/19 00:56:30;;;;;;;2.40;2.30;;;;;;;;;;5057521;28;20550;-80
2022/05/19 00:59:03;;;;;;;2.10;1.85;;;;;;;;;;5057319;28;20867;-80
2022/05/19 01:01:30;;;;;;;1.77;1.67;;;;;;;;;;5057483;28;20249;-81
2022/05/19 01:04:07;;;;;;;2.45;2.00;;;;;;;;;;5062420;28;20205;-80
2022/05/19 01:06:35;;;;;;;1.90;1.80;;;;;;;;;;5078138;28;20554;-80
2022/05/19 01:09:06;;;;;;;1.60;1.50;;;;;;;;;;5076619;28;20225;-80
2022/05/19 01:11:36;;;;;;;2.20;2.00;;;;;;;;;;5076633;28;20224;-80
2022/05/19 01:14:04;;;;;;;2.22;2.13;;;;;;;;;;5076412;28;20201;-81
2022/05/19 01:16:32;;;;;;;1.70;1.60;;;;;;;;;;5076642;28;20208;-80
2022/05/19 01:19:00;;;;;;;1.90;1.80;;;;;;;;;;5077171;28;20549;-80
2022/05/19 01:21:29;;;;;;;2.00;1.80;;;;;;;;;;5077182;28;20626;-80
2022/05/19 01:24:07;;;;;;;1.90;1.80;;;;;;;;;;5076740;28;20200;-80
2022/05/19 01:26:43;;;;;;;1.60;1.50;;;;;;;;;;5077650;28;20185;-80
2022/05/19 01:29:12;;;;;;;1.60;1.50;;;;;;;;;;5077754;28;20213;-80
2022/05/19 01:31:47;;;;;;;1.77;1.67;;;;;;;;;;5077038;28;20220;-80
2022/05/19 01:34:15;;;;;;;1.83;1.73;;;;;;;;;;5069705;28;20204;-80
2022/05/19 01:36:43;;;;;;;1.90;1.80;;;;;;;;;;5057663;28;20682;-80
2022/05/19 01:39:14;;;;;;;2.92;1.80;;;;;;;;;;5057526;28;20205;-80
2022/05/19 01:41:58;;;;;;;1.45;1.40;;;;;;;;;;5055677;28;20586;-80
2022/05/19 01:44:39;;;;;;;1.30;1.30;;;;;;;;;;5056617;28;20190;-80
2022/05/19 01:47:11;;;;;;;1.63;1.52;;;;;;;;;;5057476;28;20624;-80
2022/05/19 01:49:43;;;;;;;1.45;1.35;;;;;;;;;;5056336;28;20716;-80
2022/05/19 01:52:16;;;;;;;1.42;1.40;;;;;;;;;;5056520;28;20186;-80
2022/05/19 01:54:52;;;;;;;1.88;1.60;;;;;;;;;;5056746;28;20185;-80
2022/05/19 01:57:28;;;;;;;1.45;1.35;;;;;;;;;;5056930;28;20562;-80
2022/05/19 02:00:04;;;;;;;1.80;1.70;;;;;;;;;;5056448;28;20706;-80
2022/05/19 02:02:38;;;;;;;1.70;1.60;;;;;;;;;;5056637;28;20182;-80
2022/05/19 02:05:18;;;;;;;1.58;1.48;;;;;;;;;;5056821;28;20201;-80
2022/05/19 02:07:49;;;;;;;1.40;1.30;;;;;;;;;;5056305;28;20190;-80
2022/05/19 02:10:20;;;;;;;1.50;1.40;;;;;;;;;;5056839;28;20229;-80
2022/05/19 02:12:49;;;;;;;2.13;1.20;;;;;;;;;;5054177;28;20693;-80
2022/05/19 02:15:19;;;;;;;2.47;2.33;;;;;;;;;;5056701;28;20210;-80
2022/05/19 02:17:48;;;;;;;1.80;1.70;;;;;;;;;;5056260;28;20190;-80
2022/05/19 02:20:19;;;;;;;1.83;1.70;;;;;;;;;;5055967;28;20594;-80
2022/05/19 02:22:47;;;;;;;1.70;1.60;;;;;;;;;;5055723;28;20194;-80
2022/05/19 02:25:20;;;;;;;2.03;1.50;;;;;;;;;;5055803;28;20554;-80
2022/05/19 02:27:54;;;;;;;1.30;1.17;;;;;;;;;;5056129;28;20182;-80
2022/05/19 02:30:24;;;;;;;1.77;1.67;;;;;;;;;;5055450;28;20236;-80
2022/05/19 02:32:51;;;;;;;1.85;1.75;;;;;;;;;;5055511;28;20205;-80
2022/05/19 02:35:19;;;;;;;1.55;1.45;;;;;;;;;;5055266;28;20237;-80
2022/05/19 02:37:47;;;;;;;1.42;1.38;;;;;;;;;;5055472;28;20201;-80
2022/05/19 02:40:18;;;;;;;1.55;1.45;;;;;;;;;;5055553;28;20225;-80
2022/05/19 02:42:45;;;;;;;1.52;1.42;;;;;;;;;;5055760;28;20189;-80
2022/05/19 02:45:16;;;;;;;1.45;1.35;;;;;;;;;;5056612;28;20198;-80
2022/05/19 02:47:44;;;;;;;1.33;1.33;;;;;;;;;;5055216;28;20198;-80
2022/05/19 02:50:13;;;;;;;1.40;1.40;;;;;;;;;;5055573;28;20720;-80
2022/05/19 02:52:40;;;;;;;0.90;0.90;;;;;;;;;;5057991;28;20205;-80
2022/05/19 02:55:09;;;;;;;1.52;1.42;;;;;;;;;;5062903;28;20603;-80
2022/05/19 02:57:36;;;;;;;1.42;1.40;;;;;;;;;;5063457;28;20201;-80
2022/05/19 03:00:07;;;;;;;1.88;1.77;;;;;;;;;;5062969;28;20229;-80
2022/05/19 03:02:35;;;;;;;1.70;1.60;;;;;;;;;;5063128;28;20192;-80
2022/05/19 03:05:03;;;;;;;1.85;1.75;;;;;;;;;;5063565;28;20772;-80
2022/05/19 03:07:30;;;;;;;1.85;1.75;;;;;;;;;;5063547;28;20197;-80
2022/05/19 03:09:57;;;;;;;1.60;1.50;;;;;;;;;;5063778;28;20279;-80
2022/05/19 03:12:25;;;;;;;2.10;1.80;;;;;;;;;;5061084;28;20220;-80
2022/05/19 03:14:52;;;;;;;2.63;1.92;;;;;;;;;;5063362;28;20247;-80
2022/05/19 03:17:19;;;;;;;2.20;2.00;;;;;;;;;;5063350;28;20204;-79
2022/05/19 03:19:48;;;;;;;1.77;1.63;;;;;;;;;;5062937;28;20217;-79
2022/05/19 03:22:15;;;;;;;1.85;1.75;;;;;;;;;;5063218;28;20203;-80
2022/05/19 03:24:42;;;;;;;2.15;1.77;;;;;;;;;;5063169;28;20569;-80
2022/05/19 03:27:10;;;;;;;1.30;1.25;;;;;;;;;;5063977;28;20205;-79
2022/05/19 03:29:37;;;;;;;1.45;1.42;;;;;;;;;;5061182;28;20202;-80
2022/05/19 03:32:05;;;;;;;2.28;2.08;;;;;;;;;;5062045;28;20612;-80
2022/05/19 03:34:33;;;;;;;1.50;1.40;;;;;;;;;;5063306;28;20217;-80
2022/05/19 03:37:04;;;;;;;1.77;1.67;;;;;;;;;;5062956;28;20201;-80
2022/05/19 03:39:32;;;;;;;1.90;1.80;;;;;;;;;;5062833;28;20569;-80
2022/05/19 03:41:59;;;;;;;1.70;1.60;;;;;;;;;;5062400;28;20604;-80
2022/05/19 03:44:26;;;;;;;1.50;1.40;;;;;;;;;;5063456;28;20201;-80
2022/05/19 03:46:53;;;;;;;1.60;1.50;;;;;;;;;;5062961;28;20205;-80
2022/05/19 03:49:21;;;;;;;1.80;1.70;;;;;;;;;;5063070;28;20256;-80
2022/05/19 03:51:48;;;;;;;1.85;1.73;;;;;;;;;;5062688;28;20229;-80
2022/05/19 03:54:16;;;;;;;1.60;1.50;;;;;;;;;;5063258;28;20209;-80
2022/05/19 03:56:44;;;;;;;1.50;1.40;;;;;;;;;;5062674;28;20209;-80
2022/05/19 03:59:12;;;;;;;1.58;1.48;;;;;;;;;;5063815;28;20233;-80
2022/05/19 04:01:39;;;;;;;1.98;1.88;;;;;;;;;;5062149;28;20221;-80
2022/05/19 04:04:07;;;;;;;1.92;1.80;;;;;;;;;;5059873;28;20210;-80
2022/05/19 04:06:35;;;;;;;1.30;1.20;;;;;;;;;;5060170;28;20243;-80
2022/05/19 04:09:03;;;;;;;1.48;1.40;;;;;;;;;;5059406;28;20669;-80
2022/05/19 04:11:32;;;;;;;2.65;2.40;;;;;;;;;;5059728;28;20245;-80
2022/05/19 04:13:59;;;;;;;1.95;1.85;;;;;;;;;;5059587;28;20205;-81
2022/05/19 04:16:27;;;;;;;1.75;1.58;;;;;;;;;;5060360;28;20224;-80
2022/05/19 04:18:54;;;;;;;1.52;1.42;;;;;;;;;;5059841;28;20202;-81
2022/05/19 04:21:21;;;;;;;1.30;1.30;;;;;;;;;;5058371;28;20629;-81
2022/05/19 04:23:49;;;;;;;2.67;1.73;;;;;;;;;;5055554;28;20256;-81
2022/05/19 04:26:17;;;;;;;1.88;1.73;;;;;;;;;;5055427;28;20201;-81
2022/05/19 04:28:45;;;;;;;1.52;1.42;;;;;;;;;;5056692;28;20731;-80
2022/05/19 04:31:13;;;;;;;1.33;1.33;;;;;;;;;;5055532;28;20578;-82
2022/05/19 04:33:40;;;;;;;1.67;1.58;;;;;;;;;;5056694;28;20224;-83
2022/05/19 04:36:08;;;;;;;3.08;2.05;;;;;;;;;;5055178;28;20210;-82
2022/05/19 04:38:35;;;;;;;2.35;2.25;;;;;;;;;;5060512;28;20689;-84
2022/05/19 04:41:05;;;;;;;2.33;2.13;;;;;;;;;;5058067;28;20706;-88
2022/05/19 04:43:33;;;;;;;1.95;1.85;;;;;;;;;;5057114;28;20275;-81
2022/05/19 04:46:01;;;;;;;1.92;1.80;;;;;;;;;;5056951;28;20735;-83
2022/05/19 04:48:29;;;;;;;1.83;1.70;;;;;;;;;;5056037;28;20209;-82
2022/05/19 04:50:59;;;;;;;1.60;1.50;;;;;;;;;;5056779;28;20229;-82
2022/05/19 04:53:27;;;;;;;1.58;1.48;;;;;;;;;;5056607;28;20209;-81
2022/05/19 04:55:55;;;;;;;2.00;1.85;;;;;;;;;;5057446;28;20551;-82
2022/05/19 04:58:22;;;;;;;4.45;2.65;;;;;;;;;;5056997;28;20197;-81
2022/05/19 05:00:51;;;;;;;1.63;1.52;;;;;;;;;;5056844;28;20259;-81
2022/05/19 05:03:21;;;;;;;1.80;1.70;;;;;;;;;;5056203;28;20650;-79
2022/05/19 05:05:48;;;;;;;2.33;1.90;;;;;;;;;;5056178;28;20201;-81
2022/05/19 05:08:15;;;;;;;1.95;1.85;;;;;;;;;;5056223;28;20201;-81
2022/05/19 05:10:43;;;;;;;2.28;2.17;;;;;;;;;;5055868;28;20244;-81
2022/05/19 05:13:13;;;;;;;1.85;1.75;;;;;;;;;;5054821;28;20217;-81
2022/05/19 05:15:42;;;;;;;2.28;2.08;;;;;;;;;;5056239;28;20190;-84
2022/05/19 05:18:11;;;;;;;2.03;1.90;;;;;;;;;;5056728;28;20212;-85
2022/05/19 05:20:43;;;;;;;1.92;1.73;;;;;;;;;;5056343;28;20225;-80
2022/05/19 05:23:10;;;;;;;1.98;1.88;;;;;;;;;;5056312;28;20193;-81
2022/05/19 05:25:37;;;;;;;2.20;1.98;;;;;;;;;;5056100;28;20259;-81
2022/05/19 05:28:05;;;;;;;2.15;1.77;;;;;;;;;;5055963;28;20720;-81
2022/05/19 05:30:32;;;;;;;2.05;1.88;;;;;;;;;;5056195;28;20643;-81
2022/05/19 05:33:05;;;;;;;2.75;2.55;;;;;;;;;;5055723;28;20232;-84
2022/05/19 05:35:33;;;;;;;2.67;2.47;;;;;;;;;;5057448;28;20650;-82
2022/05/19 05:38:02;;;;;;;1.92;1.83;;;;;;;;;;5056655;28;20296;-81
2022/05/19 05:40:29;;;;;;;3.20;2.33;;;;;;;;;;5057705;28;20226;-82
2022/05/19 05:42:57;;;;;;;1.98;1.80;;;;;;;;;;5055715;28;20202;-82
2022/05/19 05:45:24;;;;;;;2.15;2.05;;;;;;;;;;5056302;28;20198;-83
2022/05/19 05:47:51;;;;;;;2.88;2.65;;;;;;;;;;5056157;28;20665;-82
2022/05/19 05:50:19;;;;;;;2.60;2.25;;;;;;;;;;5056395;28;20698;-82
2022/05/19 05:52:46;;;;;;;2.40;2.20;;;;;;;;;;5056330;28;20236;-82
2022/05/19 05:55:15;;;;;;;2.25;2.15;;;;;;;;;;5057424;28;20202;-83
2022/05/19 05:57:42;;;;;;;2.38;2.20;;;;;;;;;;5056514;28;20731;-82
2022/05/19 06:00:12;;;;;;;4.18;2.38;;;;;;;;;;5056488;28;20225;-82
2022/05/19 06:02:40;;;;;;;1.77;1.67;;;;;;;;;;5056529;28;20190;-82
2022/05/19 06:05:08;;;;;;;2.03;1.92;;;;;;;;;;5056217;28;20292;-82
2022/05/19 06:07:35;;;;;;;2.58;2.38;;;;;;;;;;5056814;28;20209;-82
2022/05/19 06:10:02;;;;;;;2.38;1.98;;;;;;;;;;5055941;28;20590;-82
2022/05/19 06:12:31;;;;;;;2.13;2.00;;;;;;;;;;5055393;28;20225;-82
2022/05/19 06:14:58;;;;;;;1.90;1.80;;;;;;;;;;5055798;28;20209;-82
2022/05/19 06:17:26;;;;;;;2.38;2.17;;;;;;;;;;5056017;28;20205;-83
2022/05/19 06:19:54;;;;;;;2.60;2.33;;;;;;;;;;5056032;28;20660;-83
2022/05/19 06:22:22;;;;;;;3.63;2.38;;;;;;;;;;5055766;28;20206;-82
2022/05/19 06:24:50;;;;;;;1.90;1.80;;;;;;;;;;5056002;28;20205;-82
2022/05/19 06:27:17;;;;;;;2.15;1.98;;;;;;;;;;5056047;28;20655;-82
2022/05/19 06:29:46;;;;;;;2.38;2.17;;;;;;;;;;5055668;28;20229;-82
2022/05/19 06:32:13;;;;;;;2.95;2.75;;;;;;;;;;5054798;28;20648;-82
2022/05/19 06:34:41;;;;;;;3.60;3.30;;;;;;;;;;5056341;28;20251;-83
2022/05/19 06:37:08;;;;;;;3.95;2.88;;;;;;;;;;5055765;28;20283;-83
2022/05/19 06:39:35;;;;;;;3.20;2.90;;;;;;;;;;5055185;28;20201;-82
2022/05/19 06:42:03;;;;;;;4.30;3.30;;;;;;;;;;5054565;28;20201;-83
2022/05/19 06:44:33;;;;;;;3.13;2.92;;;;;;;;;;5056467;28;20587;-82
2022/05/19 06:47:02;;;;;;;4.10;3.70;;;;;;;;;;5054845;28;20236;-82
2022/05/19 06:49:30;;;;;;;3.33;2.95;;;;;;;;;;5055621;28;20655;-82
2022/05/19 06:51:57;;;;;;;3.10;2.90;;;;;;;;;;5054653;28;20216;-82
2022/05/19 06:54:24;;;;;;;3.83;3.38;;;;;;;;;;5055116;28;20206;-82
2022/05/19 06:56:52;;;;;;;3.45;3.10;;;;;;;;;;5055155;28;20217;-82
2022/05/19 06:59:22;;;;;;;3.72;3.22;;;;;;;;;;5054245;28;20209;-82
2022/05/19 07:01:49;;;;;;;3.70;2.60;;;;;;;;;;5055400;28;20567;-83
2022/05/19 07:04:18;;;;;;;2.95;2.55;;;;;;;;;;5049410;28;20201;-82
2022/05/19 07:06:45;;;;;;;4.68;2.60;;;;;;;;;;5050137;28;20202;-83
2022/05/19 07:09:13;;;;;;;3.10;2.90;;;;;;;;;;5049193;28;20201;-83
2022/05/19 07:11:40;;;;;;;2.28;2.17;;;;;;;;;;5048173;28;20221;-82
2022/05/19 07:14:09;;;;;;;2.63;2.42;;;;;;;;;;5047366;28;20236;-82
2022/05/19 07:16:37;;;;;;;5.50;2.72;;;;;;;;;;5048428;28;20560;-82
2022/05/19 07:21:50;;;;;;;2.70;2.47;;;;;;;;;;5054820;28;20212;-82
2022/05/19 07:24:21;;;;;;;2.63;2.00;;;;;;;;;;5054325;28;20279;-82
2022/05/19 07:26:50;;;;;;;2.45;2.33;;;;;;;;;;5054923;28;20213;-82
2022/05/19 07:29:19;;;;;;;3.28;2.20;;;;;;;;;;5053550;28;20209;-83
2022/05/19 07:31:47;;;;;;;2.10;2.00;;;;;;;;;;5054205;28;20287;-82
2022/05/19 07:34:17;;;;;;;2.67;2.47;;;;;;;;;;5054732;28;20222;-82
2022/05/19 07:36:44;;;;;;;2.33;2.15;;;;;;;;;;5054731;28;20206;-83
2022/05/19 07:39:13;;;;;;;2.13;1.90;;;;;;;;;;5055184;28;20213;-82
2022/05/19 07:41:41;;;;;;;2.50;2.30;;;;;;;;;;5057916;28;20229;-82
2022/05/19 07:44:09;;;;;;;2.20;1.95;;;;;;;;;;5058471;28;20255;-82
2022/05/19 07:46:37;;;;;;;2.42;2.33;;;;;;;;;;5048157;28;20203;-83
2022/05/19 07:49:05;;;;;;;2.67;2.45;;;;;;;;;;5056195;28;20206;-82
2022/05/19 07:51:37;;;;;;;2.03;1.92;;;;;;;;;;5058944;28;20221;-82
2022/05/19 07:54:05;;;;;;;2.75;2.55;;;;;;;;;;5058113;28;20225;-83
2022/05/19 07:56:34;;;;;;;2.80;2.50;;;;;;;;;;5059265;28;20662;-82
2022/05/19 07:59:02;;;;;;;2.40;2.20;;;;;;;;;;5058523;28;20198;-83
2022/05/19 08:01:30;;;;;;;2.80;2.58;;;;;;;;;;5058423;28;20252;-82
2022/05/19 08:03:57;;;;;;;2.47;1.70;;;;;;;;;;5057859;28;20231;-82
2022/05/19 08:06:24;;;;;;;2.95;1.80;;;;;;;;;;5058441;28;20202;-83
2022/05/19 08:08:52;;;;;;;1.75;1.65;;;;;;;;;;5058354;28;20279;-82
2022/05/19 08:11:19;;;;;;;2.88;2.38;;;;;;;;;;5058305;28;20232;-82
2022/05/19 08:16:33;;;;;;;1.85;1.70;;;;;;;;;;5058399;28;20841;-82
2022/05/19 08:19:00;;;;;;;2.70;1.77;;;;;;;;;;5058664;28;20213;-83
2022/05/19 08:21:27;;;;;;;1.67;1.58;;;;;;;;;;5057915;28;20221;-83
2022/05/19 08:23:54;;;;;;;3.33;1.92;;;;;;;;;;5056903;28;20197;-82
2022/05/19 08:26:22;;;;;;;1.67;1.58;;;;;;;;;;5058324;28;20209;-83
2022/05/19 08:28:52;;;;;;;2.58;1.60;;;;;;;;;;5058124;28;20202;-83
2022/05/19 08:31:22;;;;;;;1.63;1.52;;;;;;;;;;5052518;28;20218;-83
2022/05/19 08:33:51;;;;;;;2.00;1.80;;;;;;;;;;5057225;28;20248;-83
2022/05/19 08:36:18;;;;;;;3.05;1.85;;;;;;;;;;5056859;28;20324;-83
2022/05/19 08:38:47;;;;;;;2.15;1.92;;;;;;;;;;5058165;28;20205;-82
2022/05/19 08:41:19;;;;;;;1.50;1.50;;;;;;;;;;5058532;28;20222;-83
2022/05/19 08:43:51;;;;;;;1.92;1.83;;;;;;;;;;5057606;28;20581;-82
2022/05/19 08:46:22;;;;;;;2.28;2.15;;;;;;;;;;5052105;28;20210;-82
2022/05/19 08:48:52;;;;;;;2.15;1.80;;;;;;;;;;5057580;28;20263;-83
2022/05/19 08:51:19;;;;;;;2.45;2.25;;;;;;;;;;5056558;28;20230;-83
2022/05/19 08:53:47;;;;;;;1.95;1.85;;;;;;;;;;5057029;28;20265;-82
2022/05/19 08:56:25;;;;;;;1.80;1.70;;;;;;;;;;5056983;28;20220;-82
2022/05/19 08:59:10;;;;;;;1.98;1.83;;;;;;;;;;5058126;28;20662;-82
2022/05/19 09:01:43;;;;;;;1.63;1.52;;;;;;;;;;5050495;28;20287;-82
2022/05/19 09:04:29;;;;;;;1.88;1.70;;;;;;;;;;5051312;28;20202;-82
2022/05/19 09:10:04;;;;;;;1.92;1.83;;;;;;;;;;5050915;28;20305;-82
2022/05/19 09:12:35;;;;;;;2.13;2.03;;;;;;;;;;5056987;28;20209;-82
2022/05/19 09:15:05;;;;;;;1.90;1.80;;;;;;;;;;5056950;28;20226;-83
2022/05/19 09:17:34;;;;;;;1.98;1.88;;;;;;;;;;5056524;28;20658;-83
2022/05/19 09:20:06;;;;;;;1.90;1.77;;;;;;;;;;5057295;28;20233;-81
2022/05/19 09:22:34;;;;;;;2.72;2.53;;;;;;;;;;5055709;28;20206;-82
2022/05/19 09:25:05;;;;;;;1.77;1.67;;;;;;;;;;5056402;28;20584;-82
2022/05/19 09:27:36;;;;;;;1.90;1.80;;;;;;;;;;5056446;28;20209;-82
2022/05/19 09:30:07;;;;;;;1.70;1.60;;;;;;;;;;5056768;28;20229;-83
2022/05/19 09:32:39;;;;;;;4.97;2.05;;;;;;;;;;5055431;28;20229;-82
2022/05/19 09:35:11;;;;;;;2.03;1.92;;;;;;;;;;5056108;28;20229;-82
2022/05/19 09:37:42;;;;;;;1.80;1.70;;;;;;;;;;5055769;28;20216;-82
2022/05/19 09:40:22;;;;;;;1.52;1.42;;;;;;;;;;5055522;28;20260;-82
2022/05/19 09:42:56;;;;;;;3.67;2.20;;;;;;;;;;5054898;28;20212;-82
2022/05/19 09:45:26;;;;;;;1.92;1.83;;;;;;;;;;5055526;28;20206;-82
2022/05/19 09:47:59;;;;;;;2.13;1.92;;;;;;;;;;5051785;28;20685;-82
2022/05/19 09:50:29;;;;;;;1.60;1.50;;;;;;;;;;5055440;28;20236;-82
2022/05/19 09:53:01;;;;;;;1.92;1.83;;;;;;;;;;5055520;28;20202;-82
2022/05/19 09:55:29;;;;;;;2.35;1.70;;;;;;;;;;5055749;28;20226;-82
2022/05/19 09:57:59;;;;;;;1.85;1.75;;;;;;;;;;5055206;28;20214;-82
2022/05/19 10:00:36;;;;;;;1.60;1.50;;;;;;;;;;5056164;28;20225;-83
2022/05/19 10:03:09;;;;;;;2.50;1.60;;;;;;;;;;5054577;28;20202;-82
2022/05/19 10:05:46;;;;;;;2.60;1.80;;;;;;;;;;5055259;28;20205;-83
2022/05/19 10:08:17;;;;;;;1.92;1.83;;;;;;;;;;5050236;28;20227;-83
2022/05/19 10:10:55;;;;;;;2.00;1.90;;;;;;;;;;5055543;28;20229;-83
2022/05/19 10:13:29;;;;;;;3.08;1.77;;;;;;;;;;5055415;28;20204;-82
2022/05/19 10:16:04;;;;;;;1.60;1.40;;;;;;;;;;5055837;28;20225;-82
2022/05/19 10:18:58;;;;;;;1.80;1.70;;;;;;;;;;5055009;28;20720;-81
2022/05/19 10:21:47;;;;;;;1.42;1.33;;;;;;;;;;5056257;28;20221;-83
2022/05/19 10:24:42;;;;;;;1.85;1.58;;;;;;;;;;5056469;28;20202;-82
2022/05/19 10:33:08;;;;;;;1.88;1.55;;;;;;;;;;5056181;28;20216;-83
2022/05/19 10:35:51;;;;;;;1.83;1.73;;;;;;;;;;5057180;28;20228;-82
2022/05/19 10:38:36;;;;;;;2.75;1.50;;;;;;;;;;5056603;28;20705;-82
2022/05/19 10:41:13;;;;;;;1.75;1.50;;;;;;;;;;5051062;28;20225;-82
2022/05/19 10:44:00;;;;;;;1.30;1.30;;;;;;;;;;5055992;28;20266;-82
2022/05/19 10:46:38;;;;;;;1.98;1.88;;;;;;;;;;5056663;28;20228;-82
2022/05/19 10:49:38;;;;;;;1.40;1.30;;;;;;;;;;5050158;28;20205;-81
2022/05/19 10:52:16;;;;;;;1.75;1.65;;;;;;;;;;5010067;28;20256;-81
2022/05/19 10:54:55;;;;;;;1.42;1.33;;;;;;;;;;5036490;28;20301;-82
2022/05/19 10:57:56;;;;;;;1.88;1.75;;;;;;;;;;5050911;28;20655;-83
2022/05/19 11:00:30;;;;;;;3.38;1.75;;;;;;;;;;5056744;28;20295;-82
2022/05/19 11:03:57;;;;;;;1.40;1.30;;;;;;;;;;5056071;28;20206;-82
2022/05/19 11:07:00;;;;;;;1.23;1.20;;;;;;;;;;5035162;28;20643;-83
2022/05/19 11:09:35;;;;;;;1.58;1.48;;;;;;;;;;5056602;28;20209;-82
2022/05/19 11:12:12;;;;;;;1.27;1.23;;;;;;;;;;5048601;28;20205;-82
2022/05/19 11:15:09;;;;;;;1.20;1.10;;;;;;;;;;5055822;28;20292;-83
2022/05/19 11:17:46;;;;;;;1.10;1.10;;;;;;;;;;5061505;28;20201;-82
2022/05/19 11:20:18;;;;;;;1.73;1.40;;;;;;;;;;5060745;28;20232;-83
2022/05/19 11:22:49;;;;;;;0.93;0.93;;;;;;;;;;5046315;28;20251;-82
2022/05/19 11:28:24;;;;;;;1.05;0.98;;;;;;;;;;5060437;28;20181;-82
2022/05/19 11:30:56;;;;;;;0.85;0.85;;;;;;;;;;5060374;28;20228;-82
2022/05/19 11:33:29;;;;;;;1.25;1.20;;;;;;;;;;5052271;28;20217;-82
2022/05/19 11:36:00;;;;;;;1.35;1.05;;;;;;;;;;5060557;28;20224;-82
2022/05/19 11:38:35;;;;;;;1.45;1.35;;;;;;;;;;5061112;28;20202;-82
2022/05/19 11:41:07;;;;;;;0.90;0.90;;;;;;;;;;5060441;28;20224;-82
2022/05/19 11:43:40;;;;;;;1.05;1.05;;;;;;;;;;5059705;28;20206;-82
2022/05/19 11:46:11;;;;;;;1.15;1.10;;;;;;;;;;5054519;28;20289;-82
2022/05/19 11:57:22;;;;;;;1.02;1.02;;;;;;;;;;5059580;28;20208;-82
2022/05/19 11:59:51;;;;;;;1.00;1.00;;;;;;;;;;5059411;28;20229;-82
2022/05/19 12:02:33;;;;;;;1.13;1.10;;;;;;;;;;5059101;28;20248;-84
2022/05/19 12:05:12;;;;;;;2.00;1.20;;;;;;;;;;5059396;28;20642;-83
2022/05/19 12:07:46;;;;;;;1.17;1.17;;;;;;;;;;5059770;28;20186;-83
2022/05/19 12:10:20;;;;;;;1.10;1.10;;;;;;;;;;5059650;28;20228;-82
2022/05/19 12:12:57;;;;;;;1.00;1.00;;;;;;;;;;5058794;28;20204;-83
2022/05/19 12:15:28;;;;;;;0.93;0.93;;;;;;;;;;5059411;28;20304;-84
2022/05/19 12:18:12;;;;;;;1.13;1.13;;;;;;;;;;5059662;28;20213;-84
2022/05/19 12:21:14;;;;;;;1.45;1.35;;;;;;;;;;5058986;28;20268;-84
2022/05/19 12:23:43;;;;;;;0.98;0.98;;;;;;;;;;5059192;28;20210;-84
2022/05/19 12:26:21;;;;;;;0.80;0.80;;;;;;;;;;5058843;28;20609;-85
2022/05/19 12:29:13;;;;;;;1.20;1.10;;;;;;;;;;5060325;28;20643;-84
2022/05/19 12:32:00;;;;;;;0.80;0.80;;;;;;;;;;5052837;28;20226;-83
2022/05/19 12:34:32;;;;;;;1.23;1.17;;;;;;;;;;5055349;28;20658;-84
2022/05/19 12:37:31;;;;;;;2.25;1.23;;;;;;;;;;5059259;28;20245;-84
2022/05/19 12:40:24;;;;;;;0.90;0.90;;;;;;;;;;5058784;28;20253;-83
2022/05/19 12:43:08;;;;;;;1.10;1.10;;;;;;;;;;5058641;28;20209;-84
2022/05/19 12:45:43;;;;;;;1.30;1.30;;;;;;;;;;5059513;28;20235;-84
2022/05/19 12:48:46;;;;;;;1.02;1.02;;;;;;;;;;5053437;28;20668;-83
2022/05/19 12:51:45;;;;;;;1.30;1.20;;;;;;;;;;5058793;28;20229;-83
2022/05/19 12:54:13;;;;;;;1.10;1.00;;;;;;;;;;5058882;28;20213;-83
2022/05/19 12:57:29;;;;;;;1.20;1.20;;;;;;;;;;5057835;28;20225;-83
2022/05/19 13:00:14;;;;;;;1.45;1.08;;;;;;;;;;5058617;28;20217;-85
2022/05/19 13:02:53;;;;;;;1.10;1.10;;;;;;;;;;5058666;28;20296;-84
2022/05/19 13:05:23;;;;;;;0.90;0.90;;;;;;;;;;5059172;28;20205;-84
2022/05/19 13:07:55;;;;;;;1.02;1.02;;;;;;;;;;5059621;28;20578;-85
2022/05/19 13:10:25;;;;;;;1.13;1.13;;;;;;;;;;5058967;28;20237;-84
2022/05/19 13:13:02;;;;;;;1.27;1.17;;;;;;;;;;5058320;28;20202;-84
2022/05/19 13:15:35;;;;;;;1.15;1.15;;;;;;;;;;5058554;28;20220;-83
2022/05/19 13:18:08;;;;;;;1.02;1.02;;;;;;;;;;5058088;28;20213;-82
2022/05/19 13:20:39;;;;;;;0.88;0.88;;;;;;;;;;5057987;28;20249;-83
2022/05/19 13:23:08;;;;;;;1.10;1.10;;;;;;;;;;5057918;28;20293;-83
2022/05/19 13:25:45;;;;;;;0.85;0.85;;;;;;;;;;5058317;28;20201;-84
2022/05/19 13:31:05;;;;;;;1.02;1.02;;;;;;;;;;5058221;28;20705;-84
2022/05/19 13:33:40;;;;;;;1.17;1.08;;;;;;;;;;5057067;28;20219;-83
2022/05/19 13:36:10;;;;;;;1.00;1.00;;;;;;;;;;5057318;28;20786;-83
2022/05/19 13:38:38;;;;;;;1.73;1.05;;;;;;;;;;5057182;28;20232;-83
2022/05/19 13:41:11;;;;;;;1.00;1.00;;;;;;;;;;5057661;28;20225;-83
2022/05/19 13:43:41;;;;;;;0.93;0.93;;;;;;;;;;5057524;28;20575;-83
2022/05/19 13:46:15;;;;;;;1.00;1.00;;;;;;;;;;5057450;28;20197;-83
2022/05/19 13:48:50;;;;;;;0.90;0.90;;;;;;;;;;5057417;28;20206;-82
2022/05/19 13:51:20;;;;;;;0.95;0.95;;;;;;;;;;5051182;28;20267;-82
2022/05/19 13:53:53;;;;;;;1.05;1.05;;;;;;;;;;5056904;28;20206;-83
2022/05/19 13:56:25;;;;;;;1.20;1.20;;;;;;;;;;5056955;28;20226;-83
2022/05/19 13:58:52;;;;;;;0.88;0.88;;;;;;;;;;5057431;28;20224;-82
2022/05/19 14:01:29;;;;;;;1.30;1.20;;;;;;;;;;5057158;28;20293;-82
2022/05/19 14:03:58;;;;;;;1.58;1.17;;;;;;;;;;5056154;28;20209;-82
2022/05/19 14:06:28;;;;;;;1.17;1.17;;;;;;;;;;5056929;28;20205;-82
2022/05/19 14:08:56;;;;;;;1.00;1.00;;;;;;;;;;5057490;28;20209;-81
2022/05/19 14:11:24;;;;;;;0.95;0.95;;;;;;;;;;5057004;28;20253;-83
2022/05/19 14:13:56;;;;;;;1.48;1.40;;;;;;;;;;5057099;28;20217;-82
2022/05/19 14:16:27;;;;;;;1.48;1.38;;;;;;;;;;5057371;28;20209;-81
2022/05/19 14:19:09;;;;;;;1.27;1.27;;;;;;;;;;5037453;28;20590;-82
2022/05/19 14:21:36;;;;;;;1.30;1.20;;;;;;;;;;5050414;28;20297;-82
2022/05/19 14:24:07;;;;;;;1.35;1.25;;;;;;;;;;5049378;28;20236;-82
2022/05/19 14:26:39;;;;;;;1.20;1.10;;;;;;;;;;5056737;28;20206;-82
2022/05/19 14:29:09;;;;;;;1.40;1.30;;;;;;;;;;5056258;28;20742;-82
2022/05/19 14:31:56;;;;;;;1.17;1.08;;;;;;;;;;5056207;28;20229;-81
2022/05/19 14:34:29;;;;;;;1.20;1.20;;;;;;;;;;5057001;28;20585;-82
2022/05/19 14:37:00;;;;;;;1.08;1.08;;;;;;;;;;5057165;28;20283;-83
2022/05/19 14:39:32;;;;;;;1.08;1.08;;;;;;;;;;5056726;28;20644;-82
2022/05/19 14:44:52;;;;;;;1.10;1.10;;;;;;;;;;5051713;28;20205;-82
2022/05/19 14:47:24;;;;;;;1.55;1.45;;;;;;;;;;5056921;28;20196;-83
2022/05/19 14:49:56;;;;;;;1.67;1.58;;;;;;;;;;5056568;28;20230;-79
2022/05/19 14:52:31;;;;;;;1.60;1.50;;;;;;;;;;5056332;28;20216;-80
2022/05/19 14:55:01;;;;;;;1.88;1.70;;;;;;;;;;5057446;28;20201;-83
2022/05/19 14:57:32;;;;;;;1.40;1.35;;;;;;;;;;5056245;28;20320;-83
2022/05/19 15:00:01;;;;;;;1.75;1.65;;;;;;;;;;5057189;28;20232;-83
2022/05/19 15:02:31;;;;;;;1.70;1.60;;;;;;;;;;5056691;28;20213;-84
2022/05/19 15:04:59;;;;;;;1.65;1.52;;;;;;;;;;5057012;28;20500;-83
2022/05/19 15:07:39;;;;;;;1.35;1.25;;;;;;;;;;5054669;28;20556;-83
2022/05/19 15:10:08;;;;;;;1.33;1.20;;;;;;;;;;5055426;28;20217;-83
2022/05/19 15:12:35;;;;;;;1.73;1.45;;;;;;;;;;5054639;28;20266;-82
2022/05/19 15:15:03;;;;;;;1.70;1.60;;;;;;;;;;5055266;28;20697;-84
2022/05/19 15:17:32;;;;;;;1.63;1.52;;;;;;;;;;5055680;28;20244;-82
2022/05/19 15:19:59;;;;;;;1.70;1.60;;;;;;;;;;5055434;28;20267;-83
2022/05/19 15:22:27;;;;;;;1.20;1.20;;;;;;;;;;5054542;28;20214;-82
2022/05/19 15:24:54;;;;;;;1.52;1.42;;;;;;;;;;5055576;28;20276;-83
2022/05/19 15:27:25;;;;;;;1.23;1.13;;;;;;;;;;5054923;28;20205;-83
2022/05/19 15:29:52;;;;;;;1.30;1.30;;;;;;;;;;5055154;28;20316;-83
2022/05/19 15:32:20;;;;;;;1.10;1.10;;;;;;;;;;5054053;28;20214;-83
2022/05/19 15:34:49;;;;;;;1.30;1.30;;;;;;;;;;5054816;28;20216;-83
2022/05/19 15:37:17;;;;;;;1.75;1.65;;;;;;;;;;5055021;28;20229;-82
2022/05/19 15:39:45;;;;;;;1.52;1.42;;;;;;;;;;5055288;28;20244;-83
2022/05/19 15:42:13;;;;;;;1.63;1.52;;;;;;;;;;5054583;28;20208;-83